createdAt,value
2023-03-15T00:01:26.304Z,1.80
2023-03-15T00:03:55.009Z,1.90
2023-03-15T00:06:22.132Z,1.80
2023-03-15T00:08:49.019Z,2.15
2023-03-15T00:11:16.990Z,1.90
2023-03-15T00:13:44.987Z,1.58
2023-03-15T00:16:17.273Z,2.30
2023-03-15T00:18:47.711Z,1.70
2023-03-15T00:21:15.169Z,1.40
2023-03-15T00:23:42.042Z,1.33
2023-03-15T00:26:08.834Z,1.70
2023-03-15T00:28:35.949Z,1.27
2023-03-15T00:31:16.208Z,1.42
2023-03-15T00:33:45.268Z,1.42
2023-03-15T00:36:13.204Z,1.45
2023-03-15T00:38:43.835Z,1.42
2023-03-15T00:41:14.928Z,1.20
2023-03-15T00:43:43.309Z,2.65
2023-03-15T00:46:10.892Z,1.30
2023-03-15T00:48:38.143Z,2.15
2023-03-15T00:51:07.090Z,1.42
2023-03-15T00:53:35.627Z,1.05
2023-03-15T00:56:13.039Z,1.50
2023-03-15T00:58:40.694Z,1.15
2023-03-15T01:01:17.579Z,1.25
2023-03-15T01:03:45.672Z,1.42
2023-03-15T01:06:16.685Z,1.30
2023-03-15T01:08:44.073Z,1.20
2023-03-15T01:11:15.338Z,1.30
2023-03-15T01:13:42.748Z,1.58
2023-03-15T01:16:13.438Z,1.15
2023-03-15T01:18:41.227Z,1.00
2023-03-15T01:21:11.082Z,1.30
2023-03-15T01:26:07.804Z,1.10
2023-03-15T01:28:34.625Z,1.08
2023-03-15T01:31:02.946Z,1.30
2023-03-15T01:33:29.872Z,1.02
2023-03-15T01:36:06.478Z,1.20
2023-03-15T01:38:34.367Z,1.10
2023-03-15T01:41:02.392Z,0.90
2023-03-15T01:43:34.223Z,0.90
2023-03-15T01:46:34.030Z,0.82
2023-03-15T01:49:22.706Z,1.02
2023-03-15T01:51:57.826Z,1.10
2023-03-15T01:54:37.446Z,0.85
2023-03-15T01:57:17.050Z,1.10
2023-03-15T01:59:52.967Z,1.02
2023-03-15T02:02:23.220Z,0.90
2023-03-15T02:05:09.862Z,1.00
2023-03-15T02:07:49.899Z,1.00
2023-03-15T02:10:29.002Z,1.30
2023-03-15T02:12:59.607Z,0.90
2023-03-15T02:15:27.287Z,1.05
2023-03-15T02:17:54.630Z,1.00
2023-03-15T02:21:09.959Z,1.20
2023-03-15T02:23:36.880Z,1.00
2023-03-15T02:26:26.076Z,1.10
2023-03-15T02:28:54.293Z,0.90
2023-03-15T02:31:21.918Z,1.02
2023-03-15T02:33:55.462Z,1.20
2023-03-15T02:36:25.360Z,1.00
2023-03-15T02:38:53.633Z,1.00
2023-03-15T02:41:42.247Z,1.27
2023-03-15T02:44:24.733Z,1.10
2023-03-15T02:46:55.410Z,1.23
2023-03-15T02:49:27.258Z,1.40
2023-03-15T02:51:54.514Z,1.08
2023-03-15T02:54:21.344Z,1.40
2023-03-15T02:56:48.163Z,1.60
2023-03-15T02:59:14.988Z,1.23
2023-03-15T03:01:42.143Z,1.52
2023-03-15T03:04:09.205Z,1.25
2023-03-15T03:06:36.043Z,1.40
2023-03-15T03:09:04.624Z,1.63
2023-03-15T03:11:31.516Z,1.85
2023-03-15T03:13:58.325Z,2.25
2023-03-15T03:16:25.330Z,1.42
2023-03-15T03:18:52.256Z,1.40
2023-03-15T03:21:19.345Z,1.38
2023-03-15T03:23:46.148Z,1.52
2023-03-15T03:26:17.141Z,1.60
2023-03-15T03:28:47.739Z,1.55
2023-03-15T03:33:52.441Z,1.60
2023-03-15T03:36:19.771Z,2.75
2023-03-15T03:38:47.294Z,1.60
2023-03-15T03:41:15.342Z,1.83
2023-03-15T03:43:42.323Z,1.67
2023-03-15T03:46:09.975Z,1.65
2023-03-15T03:48:41.531Z,1.55
2023-03-15T03:51:08.392Z,1.75
2023-03-15T03:53:35.478Z,1.40
2023-03-15T03:56:06.005Z,1.35
2023-03-15T03:58:34.391Z,1.45
2023-03-15T04:01:12.380Z,1.35
2023-03-15T04:03:40.791Z,2.10
2023-03-15T04:06:14.227Z,1.70
2023-03-15T04:08:44.637Z,1.58
2023-03-15T04:11:17.533Z,1.40
2023-03-15T04:13:49.189Z,1.70
2023-03-15T04:16:16.080Z,1.70
2023-03-15T04:19:07.488Z,1.42
2023-03-15T04:24:18.966Z,1.40
2023-03-15T04:27:15.043Z,1.55
2023-03-15T04:29:59.790Z,1.90
2023-03-15T04:33:00.184Z,1.67
2023-03-15T04:35:47.340Z,1.30
2023-03-15T04:38:35.421Z,1.70
2023-03-15T04:41:26.933Z,1.40
2023-03-15T04:44:03.756Z,1.55
2023-03-15T04:46:55.188Z,1.50
2023-03-15T04:49:42.300Z,1.38
2023-03-15T04:55:10.026Z,1.58
2023-03-15T04:57:58.274Z,1.52
2023-03-15T05:00:33.837Z,1.52
2023-03-15T05:03:07.033Z,1.70
2023-03-15T05:05:54.043Z,1.60
2023-03-15T05:08:39.581Z,1.60
2023-03-15T05:11:33.834Z,1.50
2023-03-15T05:14:16.789Z,1.70
2023-03-15T05:17:02.220Z,1.80
2023-03-15T05:20:12.393Z,1.90
2023-03-15T05:22:49.285Z,1.70
2023-03-15T05:25:39.574Z,1.80
2023-03-15T05:28:31.636Z,1.77
2023-03-15T05:31:15.267Z,1.63
2023-03-15T05:34:04.208Z,1.45
2023-03-15T05:36:51.881Z,1.55
2023-03-15T05:39:35.352Z,1.58
2023-03-15T05:42:11.876Z,1.40
2023-03-15T05:44:59.146Z,1.70
2023-03-15T05:47:55.126Z,1.42
2023-03-15T05:50:33.714Z,1.65
2023-03-15T05:53:18.150Z,1.60
2023-03-15T05:56:05.508Z,2.03
2023-03-15T05:58:51.059Z,1.58
2023-03-15T06:01:47.248Z,1.73
2023-03-15T06:04:23.772Z,1.65
2023-03-15T06:06:52.578Z,4.47
2023-03-15T06:09:21.093Z,5.40
2023-03-15T06:11:47.922Z,2.88
2023-03-15T06:14:14.736Z,2.05
2023-03-15T06:16:52.899Z,2.05
2023-03-15T06:19:21.347Z,1.90
2023-03-15T06:21:48.889Z,1.80
2023-03-15T06:24:23.164Z,1.90
2023-03-15T06:26:50.030Z,1.85
2023-03-15T06:29:17.391Z,1.75
2023-03-15T06:31:49.394Z,1.83
2023-03-15T06:34:17.368Z,2.22
2023-03-15T06:36:45.261Z,1.45
2023-03-15T06:39:13.340Z,1.58
2023-03-15T06:41:41.673Z,1.77
2023-03-15T06:44:13.958Z,1.77
2023-03-15T06:46:41.891Z,1.90
2023-03-15T06:49:08.695Z,1.90
2023-03-15T06:51:36.494Z,1.70
2023-03-15T06:54:03.442Z,1.60
2023-03-15T06:56:37.106Z,2.03
2023-03-15T06:59:04.495Z,1.75
2023-03-15T07:01:31.471Z,1.60
2023-03-15T07:03:58.279Z,1.48
2023-03-15T07:06:25.262Z,1.30
2023-03-15T07:08:52.081Z,1.55
2023-03-15T07:11:18.875Z,1.65
2023-03-15T07:13:45.731Z,1.48
2023-03-15T07:16:12.686Z,1.48
2023-03-15T07:18:39.576Z,1.45
2023-03-15T07:21:08.079Z,1.50
2023-03-15T07:23:34.887Z,1.75
2023-03-15T07:26:01.992Z,1.92
2023-03-15T07:28:29.283Z,2.22
2023-03-15T07:31:01.925Z,1.63
2023-03-15T07:33:31.742Z,2.13
2023-03-15T07:38:31.150Z,1.70
2023-03-15T07:40:58.332Z,1.40
2023-03-15T07:43:25.400Z,1.60
2023-03-15T07:48:32.756Z,1.63
2023-03-15T07:50:59.804Z,1.52
2023-03-15T07:53:26.716Z,2.22
2023-03-15T07:55:54.105Z,1.50
2023-03-15T07:58:20.977Z,1.50
2023-03-15T08:00:48.017Z,1.45
2023-03-15T08:03:14.956Z,1.77
2023-03-15T08:05:41.795Z,1.63
2023-03-15T08:08:08.592Z,1.67
2023-03-15T08:10:35.502Z,1.40
2023-03-15T08:13:02.326Z,1.38
2023-03-15T08:15:29.566Z,1.60
2023-03-15T08:17:59.111Z,2.00
2023-03-15T08:20:29.707Z,1.60
2023-03-15T08:22:56.961Z,1.30
2023-03-15T08:25:25.276Z,1.70
2023-03-15T08:27:52.717Z,1.70
2023-03-15T08:30:21.484Z,1.27
2023-03-15T08:32:50.268Z,2.55
2023-03-15T08:35:19.830Z,2.30
2023-03-15T08:37:47.617Z,1.30
2023-03-15T08:40:18.254Z,1.30
2023-03-15T08:42:45.346Z,2.25
2023-03-15T08:45:12.601Z,1.60
2023-03-15T08:47:39.424Z,1.98
2023-03-15T08:50:12.119Z,3.50
2023-03-15T08:52:39.957Z,1.77
2023-03-15T08:55:08.163Z,1.40
2023-03-15T08:57:35.229Z,1.10
2023-03-15T09:00:09.308Z,0.85
2023-03-15T09:02:37.240Z,0.90
2023-03-15T09:05:06.977Z,0.98
2023-03-15T09:07:34.411Z,0.90
2023-03-15T09:10:03.403Z,1.00
2023-03-15T09:12:31.693Z,0.90
2023-03-15T09:14:58.476Z,1.20
2023-03-15T09:17:25.340Z,0.90
2023-03-15T09:19:52.472Z,1.42
2023-03-15T09:22:29.270Z,0.90
2023-03-15T09:25:05.712Z,0.90
2023-03-15T09:27:32.549Z,1.10
2023-03-15T09:29:59.345Z,1.48
2023-03-15T09:32:26.718Z,1.00
2023-03-15T09:34:54.440Z,0.85
2023-03-15T09:37:21.926Z,0.70
2023-03-15T09:39:48.831Z,0.75
2023-03-15T09:42:36.812Z,1.00
2023-03-15T09:45:27.787Z,0.80
2023-03-15T09:48:17.794Z,0.70
2023-03-15T09:50:54.916Z,0.63
2023-03-15T09:53:32.019Z,0.80
2023-03-15T09:55:58.840Z,0.90
2023-03-15T09:58:32.862Z,0.80
2023-03-15T10:01:08.325Z,0.82
2023-03-15T10:03:53.457Z,0.80
2023-03-15T10:06:27.042Z,0.85
2023-03-15T10:08:59.373Z,0.50
2023-03-15T10:11:47.691Z,0.70
2023-03-15T10:14:39.195Z,0.73
2023-03-15T10:17:13.102Z,0.90
2023-03-15T10:19:49.433Z,0.70
2023-03-15T10:22:41.135Z,0.68
2023-03-15T10:25:30.868Z,0.85
2023-03-15T10:28:11.112Z,0.75
2023-03-15T10:30:42.327Z,0.52
2023-03-15T10:33:34.327Z,0.77
2023-03-15T10:36:10.967Z,0.77
2023-03-15T10:38:38.969Z,0.63
2023-03-15T10:41:06.783Z,0.65
2023-03-15T10:43:36.961Z,0.70
2023-03-15T10:46:24.110Z,0.63
2023-03-15T10:49:00.500Z,0.73
2023-03-15T10:51:33.720Z,1.00
2023-03-15T10:54:10.878Z,0.68
2023-03-15T10:56:51.809Z,0.70
2023-03-15T10:59:24.200Z,0.75
2023-03-15T11:02:14.283Z,0.65
2023-03-15T11:05:24.940Z,0.63
2023-03-15T11:08:00.789Z,0.73
2023-03-15T11:10:33.938Z,0.70
2023-03-15T11:13:20.554Z,0.60
2023-03-15T11:16:03.558Z,0.80
2023-03-15T11:18:36.815Z,0.50
2023-03-15T11:21:12.189Z,0.68
2023-03-15T11:23:47.640Z,0.88
2023-03-15T11:26:33.244Z,0.90
2023-03-15T11:29:15.204Z,0.60
2023-03-15T11:31:42.379Z,0.70
2023-03-15T11:34:31.696Z,0.80
2023-03-15T11:37:12.764Z,0.75
2023-03-15T11:39:58.747Z,0.95
2023-03-15T11:42:39.254Z,0.65
2023-03-15T11:45:18.389Z,0.80
2023-03-15T11:47:58.342Z,0.70
2023-03-15T11:52:52.774Z,0.90
2023-03-15T11:55:28.182Z,0.70
2023-03-15T11:57:57.850Z,0.80
2023-03-15T12:00:36.448Z,0.80
2023-03-15T12:03:38.915Z,0.88
2023-03-15T12:06:17.927Z,0.80
2023-03-15T12:08:52.747Z,1.02
2023-03-15T12:11:22.492Z,0.70
2023-03-15T12:14:01.526Z,1.02
2023-03-15T12:16:34.670Z,0.60
2023-03-15T12:19:17.149Z,0.80
2023-03-15T12:21:52.238Z,0.80
2023-03-15T12:24:35.212Z,0.80
2023-03-15T12:27:18.360Z,0.80
2023-03-15T12:29:47.485Z,1.00
2023-03-15T12:32:18.861Z,0.90
2023-03-15T12:34:50.763Z,0.98
2023-03-15T12:37:41.476Z,0.82
2023-03-15T12:40:22.101Z,0.93
2023-03-15T12:42:48.730Z,0.82
2023-03-15T12:45:15.473Z,0.85
2023-03-15T12:47:49.450Z,1.02
2023-03-15T12:50:44.124Z,1.00
2023-03-15T12:53:22.647Z,0.85
2023-03-15T12:55:59.447Z,0.93
2023-03-15T12:58:37.012Z,0.98
2023-03-15T13:01:07.389Z,0.88
2023-03-15T13:03:36.385Z,0.93
2023-03-15T13:06:22.107Z,1.00
2023-03-15T13:09:14.698Z,1.00
2023-03-15T13:12:04.037Z,1.10
2023-03-15T13:14:58.289Z,1.70
2023-03-15T13:17:50.640Z,1.05
2023-03-15T13:20:28.939Z,1.00
2023-03-15T13:23:30.314Z,1.45
2023-03-15T13:26:28.510Z,1.40
2023-03-15T13:29:17.526Z,1.35
2023-03-15T13:31:46.652Z,1.20
2023-03-15T13:34:24.014Z,1.05
2023-03-15T13:37:02.181Z,1.25
2023-03-15T13:39:33.338Z,1.20
2023-03-15T13:42:16.421Z,1.58
2023-03-15T13:44:43.315Z,1.10
2023-03-15T13:47:22.134Z,0.95
2023-03-15T13:49:52.625Z,1.23
2023-03-15T13:52:19.601Z,0.93
2023-03-15T13:54:46.611Z,0.93
2023-03-15T13:57:18.211Z,1.00
2023-03-15T13:59:55.237Z,1.85
2023-03-15T14:02:43.216Z,1.33
2023-03-15T14:05:19.272Z,1.63
2023-03-15T14:07:59.585Z,1.20
2023-03-15T14:11:18.108Z,1.20
2023-03-15T14:13:54.144Z,1.00
2023-03-15T14:16:57.301Z,0.82
2023-03-15T14:19:31.330Z,0.80
2023-03-15T14:22:02.739Z,1.13
2023-03-15T14:24:44.275Z,1.10
2023-03-15T14:27:18.300Z,1.05
2023-03-15T14:29:55.079Z,0.93
2023-03-15T14:32:38.597Z,1.00
2023-03-15T14:35:08.863Z,0.98
2023-03-15T14:37:41.969Z,0.70
2023-03-15T14:40:28.383Z,1.15
2023-03-15T14:42:55.288Z,1.40
2023-03-15T14:45:22.993Z,0.88
2023-03-15T14:48:06.495Z,0.90
2023-03-15T14:50:40.721Z,0.70
2023-03-15T14:53:11.632Z,0.80
2023-03-15T14:55:38.442Z,0.93
2023-03-15T14:58:13.443Z,1.20
2023-03-15T15:00:42.375Z,1.30
2023-03-15T15:03:18.583Z,1.10
2023-03-15T15:05:46.926Z,0.80
2023-03-15T15:08:19.058Z,0.70
2023-03-15T15:10:48.825Z,0.55
2023-03-15T15:13:26.413Z,0.50
2023-03-15T15:15:56.603Z,0.60
2023-03-15T15:18:26.276Z,0.70
2023-03-15T15:20:55.832Z,0.63
2023-03-15T15:26:02.641Z,0.65
2023-03-15T15:28:35.762Z,0.50
2023-03-15T15:31:07.195Z,0.60
2023-03-15T15:33:34.383Z,0.50
2023-03-15T15:36:01.680Z,0.60
2023-03-15T15:38:38.050Z,1.00
2023-03-15T15:41:05.526Z,0.80
2023-03-15T15:43:33.685Z,0.98
2023-03-15T15:46:01.723Z,0.80
2023-03-15T15:48:28.615Z,1.15
2023-03-15T15:50:55.585Z,0.90
2023-03-15T15:53:22.823Z,1.05
2023-03-15T15:55:49.763Z,0.90
2023-03-15T15:58:17.397Z,1.00
2023-03-15T16:00:44.216Z,0.90
2023-03-15T16:03:16.079Z,0.70
2023-03-15T16:05:43.517Z,0.90
2023-03-15T16:08:25.524Z,0.80
2023-03-15T16:10:52.460Z,0.82
2023-03-15T16:13:19.256Z,0.80
2023-03-15T16:15:46.044Z,0.80
2023-03-15T16:18:14.306Z,1.02
2023-03-15T16:20:42.663Z,0.90
2023-03-15T16:23:19.998Z,0.77
2023-03-15T16:25:51.028Z,1.00
2023-03-15T16:28:18.149Z,0.75
2023-03-15T16:30:46.893Z,0.80
2023-03-15T16:33:17.635Z,1.00
2023-03-15T16:35:44.873Z,0.88
2023-03-15T16:38:26.130Z,0.70
2023-03-15T16:40:53.140Z,0.90
2023-03-15T16:43:22.988Z,1.00
2023-03-15T16:45:49.765Z,1.00
2023-03-15T16:48:16.546Z,0.82
2023-03-15T16:50:44.067Z,1.00
2023-03-15T16:53:13.185Z,1.00
2023-03-15T16:55:40.457Z,1.02
2023-03-15T16:58:19.093Z,0.90
2023-03-15T17:00:47.891Z,0.88
2023-03-15T17:03:16.608Z,1.10
2023-03-15T17:05:46.445Z,1.08
2023-03-15T17:08:19.257Z,1.20
2023-03-15T17:10:47.205Z,0.90
2023-03-15T17:13:24.645Z,1.17
2023-03-15T17:15:51.537Z,1.17
2023-03-15T17:18:21.648Z,1.27
2023-03-15T17:20:50.052Z,1.40
2023-03-15T17:23:17.773Z,1.73
2023-03-15T17:25:44.727Z,1.45
2023-03-15T17:28:11.543Z,1.48
2023-03-15T17:30:38.557Z,1.70
2023-03-15T17:33:06.555Z,2.10
2023-03-15T17:35:38.040Z,2.72
2023-03-15T17:38:07.357Z,3.67
2023-03-15T17:40:36.156Z,4.63
2023-03-15T17:43:04.978Z,4.30
2023-03-15T17:45:34.449Z,3.50
2023-03-15T17:48:02.391Z,3.75
2023-03-15T17:50:32.408Z,3.00
2023-03-15T17:53:16.529Z,2.53
2023-03-15T17:55:44.146Z,3.42
2023-03-15T17:58:17.476Z,3.10
2023-03-15T18:00:44.374Z,3.45
2023-03-15T18:03:13.503Z,4.05
2023-03-15T18:05:40.895Z,4.80
2023-03-15T18:08:12.296Z,4.35
2023-03-15T18:10:43.739Z,3.83
2023-03-15T18:13:21.438Z,3.10
2023-03-15T18:15:50.010Z,3.20
2023-03-15T18:18:17.842Z,2.53
2023-03-15T18:20:45.824Z,1.98
2023-03-15T18:23:14.860Z,1.63
2023-03-15T18:25:42.977Z,1.67
2023-03-15T18:28:09.840Z,1.33
2023-03-15T18:30:36.601Z,1.58
2023-03-15T18:33:05.608Z,1.80
2023-03-15T18:35:35.480Z,2.00
2023-03-15T18:40:32.634Z,2.28
2023-03-15T18:43:00.196Z,2.13
2023-03-15T18:45:33.538Z,2.13
2023-03-15T18:48:00.421Z,2.17
2023-03-15T18:50:28.468Z,2.10
2023-03-15T18:52:55.625Z,2.30
2023-03-15T18:55:22.733Z,1.85
2023-03-15T18:57:52.061Z,2.10
2023-03-15T19:00:27.196Z,2.05
2023-03-15T19:03:00.503Z,2.00
2023-03-15T19:05:31.835Z,2.58
2023-03-15T19:07:58.881Z,3.00
2023-03-15T19:10:26.024Z,2.97
2023-03-15T19:12:53.678Z,2.90
2023-03-15T19:15:22.583Z,2.90
2023-03-15T19:17:51.705Z,3.17
2023-03-15T19:20:23.433Z,2.25
2023-03-15T19:22:52.353Z,2.10
2023-03-15T19:25:20.346Z,2.20
2023-03-15T19:27:49.775Z,2.17
2023-03-15T19:30:20.809Z,2.05
2023-03-15T19:32:49.583Z,3.75
2023-03-15T19:35:18.850Z,4.03
2023-03-15T19:37:46.918Z,2.38
2023-03-15T19:40:16.503Z,1.70
2023-03-15T19:42:44.172Z,1.48
2023-03-15T19:45:12.000Z,2.55
2023-03-15T19:47:40.048Z,4.32
2023-03-15T19:50:14.567Z,5.22
2023-03-15T19:52:46.084Z,4.45
2023-03-15T19:55:21.731Z,2.85
2023-03-15T19:57:49.718Z,3.13
2023-03-15T20:00:18.415Z,2.10
2023-03-15T20:02:47.159Z,1.60
2023-03-15T20:05:20.080Z,1.70
2023-03-15T20:07:53.900Z,2.42
2023-03-15T20:10:21.416Z,2.45
2023-03-15T20:12:48.964Z,3.28
2023-03-15T20:15:18.849Z,4.00
2023-03-15T20:24:20.256Z,5.53
2023-03-15T20:26:51.657Z,9.15
2023-03-15T20:29:18.665Z,8.38
2023-03-15T20:31:45.617Z,7.93
2023-03-15T20:34:12.504Z,6.05
2023-03-15T20:36:42.197Z,8.50
2023-03-15T20:39:21.849Z,5.50
2023-03-15T20:41:49.078Z,8.40
2023-03-15T20:44:16.232Z,7.32
2023-03-15T20:46:43.744Z,6.75
2023-03-15T20:49:10.813Z,7.93
2023-03-15T20:51:40.192Z,7.22
2023-03-15T20:54:07.045Z,7.90
2023-03-15T20:56:34.270Z,10.98
2023-03-15T20:59:04.218Z,7.57
2023-03-15T21:01:31.901Z,8.32
2023-03-15T21:03:59.158Z,6.85
2023-03-15T21:06:25.984Z,6.60
2023-03-15T21:08:52.837Z,5.50
2023-03-15T21:11:19.639Z,5.97
2023-03-15T21:13:46.583Z,7.88
2023-03-15T21:16:13.484Z,6.88
2023-03-15T21:18:47.454Z,4.85
2023-03-15T21:21:14.414Z,4.03
2023-03-15T21:23:41.892Z,4.05
2023-03-15T21:26:11.071Z,4.38
2023-03-15T21:28:38.793Z,4.75
2023-03-15T21:31:06.545Z,7.20
2023-03-15T21:33:33.855Z,6.10
2023-03-15T21:36:01.261Z,6.38
2023-03-15T21:38:31.217Z,5.18
2023-03-15T21:40:59.624Z,5.68
2023-03-15T21:43:30.085Z,8.25
2023-03-15T21:46:14.453Z,6.78
2023-03-15T21:48:41.985Z,6.57
2023-03-15T21:51:09.578Z,8.73
2023-03-15T21:53:36.774Z,7.05
2023-03-15T21:56:05.070Z,6.53
2023-03-15T21:58:32.469Z,6.80
2023-03-15T22:01:02.354Z,5.75
2023-03-15T22:03:30.149Z,5.45
2023-03-15T22:05:57.505Z,6.35
2023-03-15T22:08:24.978Z,7.22
2023-03-15T22:10:57.235Z,5.63
2023-03-15T22:13:24.787Z,6.03
2023-03-15T22:15:52.414Z,4.68
2023-03-15T22:18:19.739Z,6.03
2023-03-15T22:20:48.642Z,7.93
2023-03-15T22:23:15.536Z,8.13
2023-03-15T22:25:42.430Z,7.30
2023-03-15T22:28:09.310Z,7.47
2023-03-15T22:30:36.444Z,7.03
2023-03-15T22:33:03.380Z,7.10
2023-03-15T22:35:30.357Z,8.27
2023-03-15T22:37:57.293Z,6.53
2023-03-15T22:40:27.959Z,6.25
2023-03-15T22:42:57.091Z,6.85
2023-03-15T22:45:25.860Z,8.23
2023-03-15T22:47:53.178Z,6.63
2023-03-15T22:50:20.402Z,10.60
2023-03-15T22:52:48.227Z,6.80
2023-03-15T22:55:15.026Z,6.07
2023-03-15T22:57:41.876Z,7.05
2023-03-15T23:00:13.934Z,6.18
2023-03-15T23:02:44.900Z,9.75
2023-03-15T23:05:13.520Z,5.78
2023-03-15T23:07:41.292Z,7.47
2023-03-15T23:10:09.021Z,5.47
2023-03-15T23:12:36.795Z,8.13
2023-03-15T23:15:04.775Z,8.43
2023-03-15T23:17:31.952Z,7.65
2023-03-15T23:19:58.871Z,9.25
2023-03-15T23:22:25.687Z,8.80
2023-03-15T23:24:52.549Z,12.90
2023-03-15T23:27:19.369Z,6.13
2023-03-15T23:29:54.653Z,7.15
2023-03-15T23:32:24.859Z,7.88
2023-03-15T23:37:20.707Z,7.15
2023-03-15T23:39:47.624Z,5.22
2023-03-15T23:42:14.466Z,8.80
2023-03-15T23:44:41.354Z,6.28
2023-03-15T23:47:08.345Z,7.90
2023-03-15T23:49:35.240Z,8.60
2023-03-15T23:52:05.291Z,7.90
2023-03-15T23:54:41.100Z,7.72
2023-03-15T23:57:11.080Z,8.43
2023-03-15T23:59:38.689Z,7.10
